Time;durP1;ratioP1;P1;durP2;ratioP2;P2;SDS_P1;SDS_P2;PMS_P1;PMS_P2;Temp;Humidity;BMP_temperature;BMP_pressure;BME280_temperature;BME280_humidity;BME280_pressure;Samples;Min_cycle;Max_cycle;Signal;HPM_P1;HPM_P2
2022/11/11 06:57:45;;;;;;;1.50;1.40;;;;;;;18.99;57.40;100871.89;1931616;72;28488;-41
2022/11/11 07:00:52;;;;;;;1.40;1.30;;;;;;;19.20;55.87;100872.98;1887010;75;28145;-43
2022/11/11 07:04:02;;;;;;;2.60;1.60;;;;;;;20.02;53.78;100875.47;1870487;76;28166;-96
2022/11/11 07:07:09;;;;;;;1.60;1.50;;;;;;;20.62;50.85;100872.13;1883978;75;28147;-52
2022/11/11 07:10:16;;;;;;;1.57;1.30;;;;;;;21.16;48.38;100873.19;1882165;75;28090;-54
2022/11/11 07:13:23;;;;;;;1.30;1.30;;;;;;;21.57;47.38;100875.64;1870314;75;28126;-55
2022/11/11 07:16:29;;;;;;;1.40;1.30;;;;;;;21.89;46.73;100874.33;1890797;75;28168;-51
2022/11/11 07:19:36;;;;;;;1.53;1.43;;;;;;;22.17;46.11;100867.50;1898915;75;28117;-52
2022/11/11 07:22:42;;;;;;;1.22;1.22;;;;;;;22.37;45.65;100861.64;1884706;73;28230;-55
2022/11/11 07:25:49;;;;;;;1.17;1.17;;;;;;;22.50;45.25;100863.94;1880678;75;28171;-54
2022/11/11 07:28:55;;;;;;;1.20;1.20;;;;;;;22.65;44.91;100859.23;1878289;75;28163;-54
2022/11/11 07:32:02;;;;;;;1.10;1.10;;;;;;;22.75;44.72;100862.98;1888480;73;28032;-56
2022/11/11 07:35:09;;;;;;;1.30;1.20;;;;;;;22.83;44.56;100871.52;1888159;73;28171;-55
2022/11/11 07:38:15;;;;;;;1.40;1.30;;;;;;;22.91;44.31;100865.89;1877390;75;28223;-55
2022/11/11 07:41:22;;;;;;;1.17;1.17;;;;;;;22.97;44.10;100864.55;1885164;75;28056;-54
2022/11/11 07:44:28;;;;;;;1.30;1.20;;;;;;;23.04;43.97;100873.64;1901992;75;28053;-54
2022/11/11 07:47:35;;;;;;;1.37;1.27;;;;;;;23.09;43.86;100875.77;1881808;75;28028;-54
2022/11/11 07:50:42;;;;;;;1.30;1.20;;;;;;;23.13;43.72;100884.75;1869721;75;28146;-53
2022/11/11 07:53:49;;;;;;;1.12;1.12;;;;;;;23.15;43.62;100879.90;1891276;75;28152;-55
2022/11/11 07:56:55;;;;;;;1.20;1.20;;;;;;;23.18;43.44;100879.50;1888071;74;28137;-53
2022/11/11 08:00:02;;;;;;;1.10;1.10;;;;;;;23.24;43.38;100881.95;1891624;75;28609;-54
2022/11/11 08:03:10;;;;;;;1.07;1.07;;;;;;;23.23;43.34;100882.48;1865446;75;28162;-54
2022/11/11 08:06:21;;;;;;;2.27;1.30;;;;;;;23.25;43.32;100883.11;1878860;75;28120;-53
2022/11/11 08:09:27;;;;;;;1.40;1.20;;;;;;;23.27;43.22;100878.27;1857477;75;30199;-55
2022/11/11 08:15:58;;;;;;;1.12;1.12;;;;;;;23.29;43.13;100873.97;1887696;75;28037;-55
2022/11/11 08:19:04;;;;;;;1.20;1.20;;;;;;;23.29;43.18;100883.02;1875486;75;28157;-56
2022/11/11 08:22:10;;;;;;;1.27;1.20;;;;;;;23.29;43.13;100878.08;1876201;75;28096;-54
2022/11/11 08:25:16;;;;;;;1.00;1.00;;;;;;;23.32;43.03;100874.91;1868684;76;28157;-53
2022/11/11 08:28:23;;;;;;;1.10;1.10;;;;;;;23.33;43.05;100871.98;1882806;75;28132;-54
2022/11/11 08:31:30;;;;;;;1.35;1.25;;;;;;;23.32;43.00;100866.16;1885716;73;28179;-56
2022/11/11 08:34:37;;;;;;;1.10;1.10;;;;;;;23.34;42.98;100874.16;1868527;75;28142;-55
2022/11/11 08:37:44;;;;;;;1.10;1.10;;;;;;;23.35;42.94;100871.27;1891466;75;28157;-55
2022/11/11 08:40:53;;;;;;;1.20;1.10;;;;;;;23.36;42.91;100873.50;1864781;75;28125;-56
2022/11/11 08:44:00;;;;;;;1.10;1.10;;;;;;;23.36;42.91;100870.75;1880692;73;28098;-53
2022/11/11 08:47:06;;;;;;;1.15;1.10;;;;;;;23.36;42.90;100870.20;1899386;73;28160;-56
2022/11/11 08:50:13;;;;;;;1.10;1.10;;;;;;;23.38;42.88;100864.53;1875672;75;28204;-54
2022/11/11 08:53:20;;;;;;;1.00;1.00;;;;;;;23.36;42.88;100855.67;1867276;75;28287;-58
2022/11/11 08:56:27;;;;;;;1.00;1.00;;;;;;;23.39;42.85;100856.61;1868404;76;28119;-56
2022/11/11 08:59:33;;;;;;;1.20;1.20;;;;;;;23.38;42.84;100854.94;1896844;74;28020;-55
2022/11/11 09:02:39;;;;;;;1.00;1.00;;;;;;;23.38;42.82;100858.50;1884296;74;28220;-55
2022/11/11 09:05:46;;;;;;;1.00;1.00;;;;;;;23.38;42.86;100852.71;1894243;74;28007;-55
2022/11/11 09:08:53;;;;;;;1.05;1.05;;;;;;;23.38;42.80;100855.75;1892098;74;28089;-56
2022/11/11 09:11:59;;;;;;;1.10;1.10;;;;;;;23.36;42.89;100853.75;1890001;74;28136;-56
2022/11/11 09:15:06;;;;;;;1.10;1.10;;;;;;;23.40;42.83;100861.57;1887996;74;28021;-53
2022/11/11 09:18:13;;;;;;;1.00;1.00;;;;;;;23.38;42.81;100859.05;1902680;74;28220;-54
2022/11/11 09:21:19;;;;;;;1.20;1.20;;;;;;;23.41;42.79;100853.67;1855995;76;28831;-56
2022/11/11 09:24:25;;;;;;;1.10;1.10;;;;;;;23.40;42.76;100842.38;1870818;76;28206;-56
2022/11/11 09:27:31;;;;;;;0.90;0.90;;;;;;;23.40;42.77;100836.89;1868009;76;28093;-53
2022/11/11 09:30:38;;;;;;;1.52;1.12;;;;;;;23.40;42.80;100835.52;1869772;76;28203;-55
2022/11/11 09:33:45;;;;;;;1.00;1.00;;;;;;;23.42;42.75;100832.89;1822065;77;28184;-57
2022/11/11 09:36:51;;;;;;;1.00;1.00;;;;;;;23.38;42.86;100836.26;1813499;78;28318;-54
2022/11/11 09:39:58;;;;;;;1.00;1.00;;;;;;;23.43;42.80;100834.59;1805939;78;28254;-56
2022/11/11 09:43:19;;;;;;;1.20;1.10;;;;;;;23.43;42.78;100837.86;1796913;78;28256;-54
2022/11/11 09:46:45;;;;;;;1.00;1.00;;;;;;;23.43;42.80;100832.38;1783792;78;28233;-52
2022/11/11 09:50:13;;;;;;;1.10;1.10;;;;;;;23.40;43.00;100845.12;1801300;78;28179;-50
2022/11/11 09:53:28;;;;;;;1.10;1.10;;;;;;;23.39;43.07;100840.16;1816107;78;28385;-55
2022/11/11 09:56:37;;;;;;;1.27;1.17;;;;;;;23.41;43.17;100845.45;1808174;78;28335;-54
2022/11/11 09:59:52;;;;;;;1.30;1.20;;;;;;;23.41;43.12;100850.38;1800486;78;38756;-54
2022/11/11 10:03:08;;;;;;;1.15;1.15;;;;;;;23.43;43.13;100847.45;1858404;76;28094;-57
2022/11/11 10:06:17;;;;;;;1.20;1.10;;;;;;;23.41;43.38;100855.87;1858676;76;28098;-58
2022/11/11 10:09:29;;;;;;;1.40;1.30;;;;;;;23.36;43.69;100852.38;1868903;76;28273;-55
2022/11/11 10:12:39;;;;;;;3.87;1.40;;;;;;;23.43;43.82;100857.05;1856815;76;28101;-51
2022/11/11 10:16:06;;;;;;;1.90;1.20;;;;;;;23.48;44.02;100853.98;1850700;76;28209;-45
2022/11/11 10:19:18;;;;;;;1.52;1.40;;;;;;;23.46;43.74;100853.87;1857850;76;28261;-43
2022/11/11 10:22:36;;;;;;;3.00;1.40;;;;;;;23.46;44.05;100848.39;1858787;76;28167;-43
2022/11/11 10:25:54;;;;;;;1.42;1.30;;;;;;;23.47;44.10;100839.12;1847397;76;28243;-44
2022/11/11 10:29:02;;;;;;;2.55;1.20;;;;;;;23.48;44.15;100833.42;1845665;76;28262;-43
2022/11/11 10:32:17;;;;;;;2.50;1.47;;;;;;;23.46;44.24;100830.56;1837350;77;28233;-44
2022/11/11 10:35:26;;;;;;;2.02;1.20;;;;;;;23.44;44.28;100820.33;1858841;76;28189;-43
2022/11/11 10:38:39;;;;;;;1.40;1.20;;;;;;;23.43;44.32;100824.15;1868970;76;28096;-43
2022/11/11 10:41:51;;;;;;;1.87;1.15;;;;;;;23.44;44.10;100823.92;1857600;76;28098;-43
2022/11/11 10:45:02;;;;;;;1.22;1.12;;;;;;;23.44;44.21;100820.33;1837631;77;28182;-42
2022/11/11 10:48:15;;;;;;;3.25;1.40;;;;;;;23.44;44.19;100825.81;1837594;77;28246;-44
2022/11/11 10:51:22;;;;;;;2.20;1.27;;;;;;;23.44;44.15;100812.11;1855307;76;28152;-41
2022/11/11 10:54:43;;;;;;;1.35;1.35;;;;;;;23.42;44.20;100805.98;1853434;76;28235;-43
2022/11/11 10:58:01;;;;;;;1.42;1.32;;;;;;;23.43;44.20;100796.20;1854818;76;28160;-44
2022/11/11 11:01:11;;;;;;;1.25;1.20;;;;;;;23.43;44.17;100801.69;1855779;76;28168;-43
2022/11/11 11:04:23;;;;;;;1.20;1.20;;;;;;;23.44;44.15;100798.39;1845021;76;28251;-43
2022/11/11 11:07:38;;;;;;;1.10;1.10;;;;;;;23.45;44.16;100796.83;1852024;76;28188;-43
2022/11/11 11:10:49;;;;;;;1.30;1.30;;;;;;;23.46;44.10;100792.17;1837458;77;28218;-44
2022/11/11 11:14:02;;;;;;;1.90;1.40;;;;;;;23.47;44.11;100787.87;1837176;77;28172;-43
2022/11/11 11:17:11;;;;;;;1.70;1.32;;;;;;;23.46;44.07;100786.16;1837430;77;28199;-44
2022/11/11 11:20:20;;;;;;;1.60;1.50;;;;;;;23.46;44.01;100777.94;1821102;76;28185;-43
2022/11/11 11:23:46;;;;;;;1.30;1.30;;;;;;;23.43;44.08;100779.75;1851303;76;28097;-43
2022/11/11 11:26:58;;;;;;;2.77;1.30;;;;;;;23.47;43.98;100776.05;1853865;76;28187;-46
2022/11/11 11:30:22;;;;;;;2.00;1.45;;;;;;;23.45;44.02;100770.78;1853530;76;28175;-47
2022/11/11 11:33:38;;;;;;;2.77;1.30;;;;;;;23.44;44.06;100764.11;1853471;76;28158;-42
2022/11/11 11:36:43;;;;;;;2.27;1.50;;;;;;;23.45;44.02;100763.08;1855532;76;28112;-43
2022/11/11 11:40:01;;;;;;;1.60;1.50;;;;;;;23.49;43.99;100761.59;1851678;76;30265;-43
2022/11/11 11:43:23;;;;;;;1.60;1.50;;;;;;;23.50;43.94;100755.06;1837666;77;28186;-42
2022/11/11 11:46:33;;;;;;;2.23;1.53;;;;;;;23.47;43.91;100756.33;1856081;76;28220;-42
2022/11/11 11:50:08;;;;;;;1.95;1.30;;;;;;;23.50;43.92;100753.14;1855418;76;28112;-42
2022/11/11 11:53:26;;;;;;;1.30;1.20;;;;;;;23.51;43.87;100748.51;1859955;76;28097;-42
2022/11/11 11:56:41;;;;;;;1.42;1.40;;;;;;;23.45;43.98;100743.88;1831875;77;28152;-42
2022/11/11 11:59:50;;;;;;;1.40;1.30;;;;;;;23.48;43.93;100734.69;1860358;75;28177;-42
2022/11/11 12:03:22;;;;;;;1.57;1.30;;;;;;;23.50;43.90;100729.83;1847345;76;28517;-44
2022/11/11 12:06:41;;;;;;;1.30;1.30;;;;;;;23.50;43.90;100720.78;1873961;76;28259;-42
2022/11/11 12:09:56;;;;;;;1.42;1.32;;;;;;;23.50;43.87;100719.41;1854797;76;28163;-42
2022/11/11 12:13:14;;;;;;;1.45;1.32;;;;;;;23.51;43.79;100714.23;1856766;76;28081;-42
2022/11/11 12:16:29;;;;;;;1.40;1.30;;;;;;;23.48;43.89;100707.27;1839958;76;28103;-43
2022/11/11 12:20:09;;;;;;;1.50;1.40;;;;;;;23.51;43.85;100704.11;1856627;76;28154;-42
2022/11/11 12:23:18;;;;;;;1.50;1.40;;;;;;;23.47;43.91;100691.03;1858484;76;28106;-41
2022/11/11 12:26:40;;;;;;;1.32;1.32;;;;;;;23.46;43.92;100689.33;1878286;76;28152;-43
2022/11/11 12:30:05;;;;;;;1.52;1.42;;;;;;;23.49;43.83;100683.43;1859436;76;28242;-42
2022/11/11 12:33:36;;;;;;;1.20;1.20;;;;;;;23.49;43.81;100678.80;1861625;76;28179;-42
2022/11/11 12:37:19;;;;;;;1.20;1.20;;;;;;;23.51;43.81;100679.94;1846813;77;29245;-41
2022/11/11 12:40:29;;;;;;;1.63;1.30;;;;;;;23.45;43.83;100667.95;1850879;76;28192;-42
2022/11/11 12:43:44;;;;;;;1.50;1.40;;;;;;;23.48;43.85;100662.56;1875103;76;28186;-42
2022/11/11 12:47:18;;;;;;;1.50;1.40;;;;;;;23.49;43.78;100658.23;1868103;76;28081;-42
2022/11/11 12:50:27;;;;;;;1.40;1.30;;;;;;;23.49;43.72;100653.27;1853909;76;28145;-42
2022/11/11 12:53:37;;;;;;;1.40;1.30;;;;;;;23.46;43.79;100645.45;1856548;76;28094;-42
2022/11/11 12:56:52;;;;;;;1.70;1.30;;;;;;;23.49;43.83;100641.77;1867667;76;28285;-43
2022/11/11 13:00:13;;;;;;;1.30;1.20;;;;;;;23.54;43.72;100624.67;1839244;75;28323;-42
2022/11/11 13:03:32;;;;;;;1.10;1.10;;;;;;;23.52;43.73;100616.67;1867929;76;28226;-42
2022/11/11 13:07:03;;;;;;;1.40;1.25;;;;;;;23.53;43.75;100610.63;1867653;76;28219;-46
2022/11/11 13:10:24;;;;;;;2.40;1.30;;;;;;;23.52;43.61;100610.34;1857016;76;28206;-42
2022/11/11 13:13:50;;;;;;;1.60;1.40;;;;;;;23.51;43.74;100604.52;1846447;77;28189;-42
2022/11/11 13:17:00;;;;;;;1.70;1.37;;;;;;;23.48;43.69;100597.56;1861308;76;28097;-42
2022/11/11 13:20:18;;;;;;;1.27;1.17;;;;;;;23.52;43.71;100599.37;1860125;76;28143;-43
2022/11/11 13:23:25;;;;;;;1.80;1.15;;;;;;;23.52;43.68;100592.52;1860290;76;28112;-42
2022/11/11 13:26:38;;;;;;;1.47;1.35;;;;;;;23.54;43.64;100583.02;1846552;77;28314;-41
2022/11/11 13:30:05;;;;;;;1.32;1.22;;;;;;;23.52;43.64;100582.91;1858227;76;33021;-43
2022/11/11 13:33:21;;;;;;;1.27;1.22;;;;;;;23.51;43.60;100577.95;1860550;76;28194;-45
2022/11/11 13:36:31;;;;;;;1.42;1.10;;;;;;;23.49;43.70;100575.95;1861079;76;28255;-44
2022/11/11 13:39:46;;;;;;;1.25;1.20;;;;;;;23.52;43.69;100566.45;1860230;76;28219;-41
2022/11/11 13:42:53;;;;;;;1.15;1.12;;;;;;;23.50;43.67;100561.16;1878336;76;28144;-42
2022/11/11 13:46:03;;;;;;;1.37;1.27;;;;;;;23.55;43.57;100559.18;1846537;77;28215;-44
2022/11/11 13:49:12;;;;;;;1.20;1.20;;;;;;;23.58;43.51;100548.61;1856718;76;28186;-44
2022/11/11 13:52:27;;;;;;;1.10;1.10;;;;;;;23.59;43.48;100552.20;1869113;76;28208;-42
2022/11/11 13:55:39;;;;;;;1.17;1.17;;;;;;;23.62;43.46;100539.44;1867667;76;28253;-43
2022/11/11 13:58:48;;;;;;;1.25;1.25;;;;;;;23.60;43.50;100541.00;1867747;76;28219;-44
2022/11/11 14:02:15;;;;;;;1.50;1.35;;;;;;;23.56;43.53;100536.16;1846586;76;28494;-42
2022/11/11 14:05:24;;;;;;;1.45;1.32;;;;;;;23.60;43.48;100540.15;1856066;76;28154;-41
2022/11/11 14:08:49;;;;;;;1.27;1.17;;;;;;;23.54;43.48;100539.66;1868603;76;28280;-44
2022/11/11 14:12:15;;;;;;;1.50;1.35;;;;;;;23.58;43.51;100543.64;1858889;76;28197;-44
2022/11/11 14:15:43;;;;;;;1.37;1.30;;;;;;;23.56;43.54;100543.88;1878350;76;28149;-44
2022/11/11 14:18:49;;;;;;;1.30;1.30;;;;;;;23.56;43.52;100539.75;1864424;76;28192;-43
2022/11/11 14:21:57;;;;;;;1.35;1.30;;;;;;;23.55;43.57;100537.23;1862743;76;28097;-42
2022/11/11 14:25:21;;;;;;;1.30;1.10;;;;;;;23.54;43.52;100541.02;1860408;76;28106;-42
2022/11/11 14:28:31;;;;;;;1.50;1.40;;;;;;;23.57;43.42;100536.48;1862674;76;28118;-42
2022/11/11 14:31:47;;;;;;;1.70;1.32;;;;;;;23.57;43.52;100532.37;1861735;76;28156;-43
2022/11/11 14:35:00;;;;;;;1.37;1.37;;;;;;;23.55;43.42;100539.98;1846351;77;28198;-46
2022/11/11 14:38:15;;;;;;;1.25;1.25;;;;;;;23.57;43.45;100541.42;1846456;77;28196;-43
2022/11/11 14:41:39;;;;;;;1.20;1.20;;;;;;;23.54;43.48;100533.65;1846503;77;28292;-43
2022/11/11 14:44:46;;;;;;;1.00;1.00;;;;;;;23.58;43.37;100534.89;1844870;77;28273;-43
2022/11/11 14:47:55;;;;;;;1.20;1.20;;;;;;;23.58;43.49;100529.93;1861301;76;28207;-42
2022/11/11 14:51:01;;;;;;;1.20;1.20;;;;;;;23.58;43.42;100533.52;1859416;76;28126;-42
2022/11/11 14:54:16;;;;;;;1.13;1.13;;;;;;;23.55;43.40;100528.45;1857828;76;28140;-42
2022/11/11 14:57:45;;;;;;;1.20;1.20;;;;;;;23.59;43.46;100526.99;1846490;77;28165;-44
2022/11/11 15:01:20;;;;;;;1.30;1.20;;;;;;;23.56;43.38;100534.27;1860802;76;28121;-42
2022/11/11 15:04:24;;;;;;;1.15;1.10;;;;;;;23.54;43.54;100543.25;1861429;76;28177;-43
2022/11/11 15:07:42;;;;;;;1.35;1.20;;;;;;;23.51;43.50;100542.81;1877737;76;28195;-41
2022/11/11 15:10:55;;;;;;;1.10;1.10;;;;;;;23.53;43.53;100533.84;1863055;76;29222;-45
2022/11/11 15:14:22;;;;;;;1.00;1.00;;;;;;;23.53;43.53;100531.95;1847568;76;28285;-47
2022/11/11 15:17:43;;;;;;;1.22;1.22;;;;;;;23.52;43.47;100530.28;1865675;76;28123;-43
2022/11/11 15:21:02;;;;;;;1.20;1.10;;;;;;;23.53;43.52;100533.84;1857201;76;28221;-43
2022/11/11 15:24:37;;;;;;;1.20;1.10;;;;;;;23.50;43.57;100531.55;1861549;76;28149;-43
2022/11/11 15:27:58;;;;;;;1.15;1.15;;;;;;;23.51;43.53;100530.48;1850717;76;37110;-42
2022/11/11 15:31:26;;;;;;;1.20;1.20;;;;;;;23.50;43.58;100532.92;1856410;76;28084;-43
2022/11/11 15:34:53;;;;;;;1.12;1.02;;;;;;;23.49;43.59;100537.56;1864833;76;28300;-43
2022/11/11 15:38:02;;;;;;;1.10;1.10;;;;;;;23.47;43.66;100544.31;1859581;76;28311;-43
2022/11/11 15:41:20;;;;;;;1.10;1.00;;;;;;;23.48;43.55;100540.53;1858877;76;28185;-42
2022/11/11 15:44:30;;;;;;;1.20;1.10;;;;;;;23.52;43.54;100544.52;1846281;77;28242;-43
2022/11/11 15:47:37;;;;;;;1.62;1.30;;;;;;;23.51;43.53;100542.81;1846304;77;28215;-44
2022/11/11 15:50:44;;;;;;;1.20;1.20;;;;;;;23.51;43.53;100548.30;1846321;77;28342;-43
2022/11/11 15:53:51;;;;;;;1.02;1.02;;;;;;;23.51;43.54;100554.64;1867741;76;28292;-43
2022/11/11 15:56:58;;;;;;;1.02;1.02;;;;;;;23.49;43.61;100555.91;1849881;74;28560;-46
2022/11/11 16:00:08;;;;;;;1.30;1.30;;;;;;;23.47;43.79;100556.66;1867045;76;28262;-46
2022/11/11 16:03:20;;;;;;;1.40;1.30;;;;;;;23.45;43.70;100552.77;1864145;75;28162;-48
2022/11/11 16:06:27;;;;;;;1.40;1.30;;;;;;;23.50;43.66;100556.23;1797720;78;28262;-45
2022/11/11 16:09:35;;;;;;;1.12;1.10;;;;;;;23.43;43.70;100554.89;1779379;77;28434;-45
2022/11/11 16:12:51;;;;;;;1.25;1.10;;;;;;;23.45;43.75;100556.03;1803184;79;28458;-47
2022/11/11 16:16:00;;;;;;;1.30;1.20;;;;;;;23.42;43.83;100564.67;1788670;79;28386;-46
2022/11/11 16:19:09;;;;;;;1.50;1.20;;;;;;;23.45;43.88;100567.00;1832022;76;28201;-48
2022/11/11 16:22:25;;;;;;;1.20;1.10;;;;;;;23.45;43.86;100569.74;1847031;77;28090;-46
2022/11/11 16:25:31;;;;;;;1.20;1.20;;;;;;;23.44;43.96;100577.64;1858292;76;28504;-46
2022/11/11 16:28:44;;;;;;;1.30;1.10;;;;;;;23.51;43.78;100572.98;1860467;75;28675;-50
2022/11/11 16:31:51;;;;;;;1.12;1.12;;;;;;;23.47;43.82;100573.11;1845684;77;28164;-46
2022/11/11 16:34:57;;;;;;;1.50;1.30;;;;;;;23.44;43.92;100573.53;1848851;77;28161;-46
2022/11/11 16:38:04;;;;;;;1.62;1.15;;;;;;;23.45;43.91;100571.11;1849078;76;28168;-48
2022/11/11 16:41:30;;;;;;;2.08;1.30;;;;;;;23.46;43.85;100573.63;1843768;77;28289;-46
2022/11/11 16:44:43;;;;;;;1.30;1.20;;;;;;;23.49;43.86;100578.70;1837112;76;28314;-48
2022/11/11 16:47:50;;;;;;;1.40;1.07;;;;;;;23.46;43.87;100587.86;1856322;77;28154;-49
2022/11/11 16:51:00;;;;;;;1.17;1.15;;;;;;;23.46;43.82;100593.34;1856388;76;28411;-49
2022/11/11 16:54:10;;;;;;;1.27;1.25;;;;;;;23.46;43.89;100594.20;1843541;77;28212;-47
2022/11/11 16:57:23;;;;;;;1.10;1.10;;;;;;;23.50;43.91;100595.45;1839762;77;28227;-49
2022/11/11 17:00:30;;;;;;;1.10;1.10;;;;;;;23.45;43.91;100595.27;1841858;77;28098;-45
2022/11/11 17:03:41;;;;;;;1.35;1.25;;;;;;;23.40;43.92;100601.07;1844722;76;28172;-47
2022/11/11 17:06:58;;;;;;;1.30;1.20;;;;;;;23.42;43.98;100608.55;1861360;76;28210;-46
2022/11/11 17:10:17;;;;;;;1.32;1.32;;;;;;;23.39;44.02;100618.05;1862811;76;28157;-47
2022/11/11 17:13:23;;;;;;;1.20;1.20;;;;;;;23.40;43.88;100613.41;1845581;77;28238;-49
2022/11/11 17:16:29;;;;;;;1.00;1.00;;;;;;;23.44;43.75;100610.55;1861887;76;28234;-45
2022/11/11 17:19:36;;;;;;;1.20;1.10;;;;;;;23.43;43.84;100619.84;1877679;76;28145;-48
2022/11/11 17:22:50;;;;;;;1.10;1.10;;;;;;;23.40;43.89;100624.38;1862858;76;30250;-45
2022/11/11 17:26:01;;;;;;;1.12;1.12;;;;;;;23.49;43.85;100623.09;1859020;76;28254;-46
2022/11/11 17:29:09;;;;;;;1.40;1.12;;;;;;;23.46;43.83;100628.48;1858201;76;28129;-48
2022/11/11 17:32:15;;;;;;;1.80;1.40;;;;;;;23.45;43.88;100636.92;1877736;76;28146;-48
2022/11/11 17:35:22;;;;;;;1.35;1.20;;;;;;;23.44;43.92;100639.34;1856147;76;28161;-45
2022/11/11 17:38:31;;;;;;;1.12;1.12;;;;;;;23.44;43.88;100638.82;1856189;76;28257;-45
2022/11/11 17:41:37;;;;;;;1.53;1.30;;;;;;;23.47;43.90;100643.04;1815753;77;28185;-44
2022/11/11 17:44:43;;;;;;;1.30;1.20;;;;;;;23.44;43.93;100648.42;1793870;78;28385;-44
2022/11/11 17:47:50;;;;;;;1.47;1.37;;;;;;;23.45;43.95;100655.61;1791486;78;28622;-47
2022/11/11 17:50:57;;;;;;;1.40;1.30;;;;;;;23.43;43.92;100665.95;1838784;77;33200;-45
2022/11/11 17:54:06;;;;;;;1.22;1.10;;;;;;;23.42;43.98;100666.14;1804809;79;28271;-45
2022/11/11 17:57:12;;;;;;;1.15;1.15;;;;;;;23.46;43.90;100669.61;1819755;78;28306;-45
2022/11/11 18:00:18;;;;;;;1.10;1.10;;;;;;;23.45;43.87;100676.17;1868698;75;28168;-44
2022/11/11 18:03:25;;;;;;;2.22;1.30;;;;;;;23.51;43.89;100670.34;1866681;75;28153;-49
2022/11/11 18:06:34;;;;;;;1.47;1.37;;;;;;;23.53;43.79;100675.94;1850108;76;28155;-47
2022/11/11 18:09:40;;;;;;;1.10;1.10;;;;;;;23.50;43.91;100676.91;1844811;77;28193;-47
2022/11/11 18:12:46;;;;;;;1.20;1.20;;;;;;;23.45;43.86;100677.54;1855621;77;28126;-47
2022/11/11 18:15:55;;;;;;;1.10;1.10;;;;;;;23.49;43.94;100679.31;1866643;76;28145;-45
2022/11/11 18:19:01;;;;;;;1.40;1.30;;;;;;;23.51;43.89;100679.42;1850325;77;28716;-46
2022/11/11 18:22:08;;;;;;;2.17;1.30;;;;;;;23.51;43.87;100679.42;1841142;76;28219;-48
2022/11/11 18:25:15;;;;;;;1.27;1.27;;;;;;;23.55;43.86;100682.60;1835239;77;28251;-47
2022/11/11 18:28:21;;;;;;;1.10;1.10;;;;;;;23.54;43.77;100685.86;1846944;76;28175;-48
2022/11/11 18:31:28;;;;;;;1.10;1.10;;;;;;;23.59;43.76;100675.62;1856207;77;28133;-47
2022/11/11 18:34:34;;;;;;;1.30;1.30;;;;;;;23.56;43.71;100682.38;1849917;76;28231;-50
2022/11/11 18:37:41;;;;;;;1.47;1.37;;;;;;;23.60;43.70;100678.66;1841682;77;28196;-44
2022/11/11 18:40:47;;;;;;;1.17;1.17;;;;;;;23.58;43.71;100683.01;1836966;77;28207;-45
2022/11/11 18:43:54;;;;;;;1.30;1.30;;;;;;;23.62;43.69;100686.19;1849997;76;28141;-48
2022/11/11 18:47:01;;;;;;;1.25;1.15;;;;;;;23.61;43.66;100687.22;1836566;77;28134;-45
2022/11/11 18:50:08;;;;;;;1.30;1.20;;;;;;;23.63;43.63;100687.85;1868075;76;28141;-45
2022/11/11 18:53:15;;;;;;;1.15;1.15;;;;;;;23.61;43.65;100697.67;1827155;77;28341;-48
2022/11/11 18:56:24;;;;;;;1.32;1.32;;;;;;;23.57;43.63;100693.64;1857871;76;28348;-45
2022/11/11 18:59:30;;;;;;;1.45;1.35;;;;;;;23.57;43.73;100699.13;1857689;76;28971;-48
2022/11/11 19:02:36;;;;;;;1.25;1.25;;;;;;;23.58;43.75;100698.61;1828853;77;28342;-45
2022/11/11 19:05:43;;;;;;;1.42;1.32;;;;;;;23.58;43.73;100697.24;1847260;76;28235;-45
2022/11/11 19:08:58;;;;;;;1.50;1.40;;;;;;;23.57;43.74;100701.05;1846653;76;28270;-46
2022/11/11 19:12:05;;;;;;;1.23;1.23;;;;;;;23.60;43.70;100701.46;1837417;76;28302;-47
2022/11/11 19:15:11;;;;;;;1.32;1.30;;;;;;;23.58;43.63;100707.69;1848724;76;28303;-44
2022/11/11 19:18:18;;;;;;;1.40;1.30;;;;;;;23.51;43.76;100710.96;1854636;76;28227;-49
2022/11/11 19:21:26;;;;;;;1.60;1.50;;;;;;;23.48;43.89;100717.41;1847468;76;28181;-47
2022/11/11 19:24:33;;;;;;;1.50;1.40;;;;;;;23.50;43.90;100720.23;1839675;76;28273;-47
2022/11/11 19:27:39;;;;;;;1.50;1.35;;;;;;;23.50;43.95;100716.12;1842354;76;28274;-45
2022/11/11 19:30:46;;;;;;;1.50;1.40;;;;;;;23.54;43.85;100719.30;1849230;76;28171;-50
2022/11/11 19:33:53;;;;;;;1.22;1.22;;;;;;;23.56;43.92;100720.78;1856028;76;28216;-45
2022/11/11 19:37:01;;;;;;;1.40;1.30;;;;;;;23.60;43.76;100728.04;1846044;76;28168;-47
2022/11/11 19:40:09;;;;;;;1.50;1.40;;;;;;;23.58;43.75;100731.53;1851378;76;28282;-46
2022/11/11 19:43:16;;;;;;;1.50;1.40;;;;;;;23.58;43.89;100731.53;1848487;76;28288;-46
2022/11/11 19:46:25;;;;;;;1.40;1.30;;;;;;;23.65;43.83;100731.84;1842042;76;28234;-46
2022/11/11 19:49:32;;;;;;;1.32;1.30;;;;;;;23.61;43.76;100740.72;1842331;76;28207;-48
2022/11/11 19:52:38;;;;;;;1.50;1.40;;;;;;;23.62;43.74;100740.49;1819535;78;28889;-45
2022/11/11 19:56:00;;;;;;;1.40;1.30;;;;;;;23.63;43.82;100746.83;1856116;76;28150;-45
2022/11/11 19:59:06;;;;;;;1.95;1.37;;;;;;;23.62;43.82;100745.16;1837404;76;31763;-45
2022/11/11 20:02:12;;;;;;;1.25;1.25;;;;;;;23.56;43.84;100745.47;1853310;76;28137;-45
2022/11/11 20:05:19;;;;;;;1.40;1.30;;;;;;;23.56;43.91;100741.87;1845071;76;28150;-45
2022/11/11 20:08:25;;;;;;;1.45;1.40;;;;;;;23.56;43.90;100739.98;1849297;76;31195;-44
2022/11/11 20:11:32;;;;;;;1.70;1.60;;;;;;;23.58;43.83;100750.73;1838575;76;28282;-43
2022/11/11 20:14:38;;;;;;;1.32;1.22;;;;;;;23.55;43.92;100745.69;1839503;76;28220;-47
2022/11/11 20:17:45;;;;;;;1.70;1.60;;;;;;;23.56;43.90;100750.09;1836785;77;28235;-46
2022/11/11 20:20:53;;;;;;;1.53;1.50;;;;;;;23.55;43.96;100752.55;1842360;76;28324;-46
2022/11/11 20:24:00;;;;;;;1.40;1.30;;;;;;;23.54;43.96;100759.92;1858742;76;28160;-50
2022/11/11 20:27:07;;;;;;;1.65;1.50;;;;;;;23.53;43.99;100764.22;1844417;76;28207;-45
2022/11/11 20:30:14;;;;;;;1.27;1.27;;;;;;;23.54;44.01;100774.16;1849664;76;28150;-46
2022/11/11 20:33:20;;;;;;;1.52;1.42;;;;;;;23.52;43.98;100774.38;1854400;76;30226;-45
2022/11/11 20:36:27;;;;;;;1.50;1.40;;;;;;;23.53;44.01;100782.91;1839516;76;28232;-47
2022/11/11 20:39:33;;;;;;;1.32;1.22;;;;;;;23.53;44.01;100782.91;1841589;76;28512;-45
2022/11/11 20:42:40;;;;;;;1.60;1.50;;;;;;;23.56;43.98;100783.02;1844003;76;28318;-44
2022/11/11 20:45:46;;;;;;;1.90;1.70;;;;;;;23.55;43.93;100782.72;1845570;76;28139;-44
2022/11/11 20:48:53;;;;;;;2.50;1.40;;;;;;;23.55;43.95;100786.27;1836676;77;28231;-47
2022/11/11 20:51:59;;;;;;;1.60;1.50;;;;;;;23.55;43.95;100786.27;1857556;76;28219;-46
2022/11/11 20:55:06;;;;;;;1.90;1.60;;;;;;;23.55;43.95;100787.64;1848575;76;28173;-47
2022/11/11 20:58:12;;;;;;;1.77;1.50;;;;;;;23.53;43.98;100788.39;1859167;76;28191;-45
2022/11/11 21:01:21;;;;;;;1.60;1.50;;;;;;;23.56;43.96;100787.13;1846957;76;28261;-51
2022/11/11 21:04:27;;;;;;;1.80;1.70;;;;;;;23.56;43.96;100791.24;1839581;76;28211;-46
2022/11/11 21:07:33;;;;;;;1.27;1.27;;;;;;;23.55;43.92;100795.88;1862266;75;28379;-46
2022/11/11 21:10:40;;;;;;;1.37;1.30;;;;;;;23.54;43.93;100788.72;1846420;77;28867;-46
2022/11/11 21:13:47;;;;;;;1.27;1.27;;;;;;;23.54;43.94;100789.23;1853499;76;28107;-45
2022/11/11 21:16:53;;;;;;;1.32;1.32;;;;;;;23.54;43.95;100779.64;1851451;76;28195;-48
2022/11/11 21:19:59;;;;;;;1.57;1.47;;;;;;;23.56;43.95;100780.27;1837618;77;28381;-47
2022/11/11 21:23:05;;;;;;;1.40;1.40;;;;;;;23.56;43.92;100778.38;1850862;76;38530;-48
2022/11/11 21:26:15;;;;;;;1.60;1.50;;;;;;;23.56;43.90;100774.78;1842795;77;28246;-47
2022/11/11 21:29:21;;;;;;;1.57;1.47;;;;;;;23.54;43.89;100777.75;1828382;77;28348;-47
2022/11/11 21:32:27;;;;;;;1.70;1.60;;;;;;;23.54;43.96;100781.86;1842203;77;28510;-44
2022/11/11 21:35:34;;;;;;;1.70;1.60;;;;;;;23.55;43.96;100784.91;1842756;77;28222;-46
2022/11/11 21:38:42;;;;;;;1.70;1.60;;;;;;;23.55;43.91;100778.05;1854690;76;28352;-45
2022/11/11 21:41:51;;;;;;;1.40;1.30;;;;;;;23.55;43.94;100785.45;1854632;76;28307;-47
2022/11/11 21:44:58;;;;;;;1.50;1.40;;;;;;;23.55;43.89;100776.67;1832137;77;28199;-45
2022/11/11 21:48:05;;;;;;;1.77;1.30;;;;;;;23.55;43.91;100792.31;1828064;77;28210;-48